sensor_id;sensor_type;location;lat;lon;timestamp;pressure;altitude;pressure_sealevel;temperature;humidity
22862;BME280;11598;50.652;6.172;2023-06-05T00:09:16;96887.19;;;12.93;52.65
22862;BME280;11598;50.652;6.172;2023-06-05T00:19:17;96889.44;;;12.75;53.33
22862;BME280;11598;50.652;6.172;2023-06-05T00:29:17;96886.84;;;12.75;53.38
22862;BME280;11598;50.652;6.172;2023-06-05T00:39:17;96878.66;;;12.68;53.77
22862;BME280;11598;50.652;6.172;2023-06-05T00:49:21;96886.06;;;12.50;54.45
22862;BME280;11598;50.652;6.172;2023-06-05T00:59:22;96880.69;;;12.29;55.45
22862;BME280;11598;50.652;6.172;2023-06-05T01:09:24;96872.97;;;11.92;57.87
22862;BME280;11598;50.652;6.172;2023-06-05T01:19:24;96876.28;;;11.46;59.90
22862;BME280;11598;50.652;6.172;2023-06-05T01:29:39;96869.16;;;10.87;61.74
22862;BME280;11598;50.652;6.172;2023-06-05T01:39:45;96861.94;;;11.04;60.53
22862;BME280;11598;50.652;6.172;2023-06-05T01:49:47;96851.31;;;11.07;60.62
22862;BME280;11598;50.652;6.172;2023-06-05T01:59:47;96847.94;;;10.81;62.27
22862;BME280;11598;50.652;6.172;2023-06-05T02:09:49;96840.78;;;10.46;63.76
22862;BME280;11598;50.652;6.172;2023-06-05T02:19:50;96831.59;;;10.14;65.87
22862;BME280;11598;50.652;6.172;2023-06-05T02:29:51;96836.22;;;9.84;68.03
22862;BME280;11598;50.652;6.172;2023-06-05T02:39:52;96823.09;;;9.60;69.40
22862;BME280;11598;50.652;6.172;2023-06-05T02:49:52;96821.44;;;9.31;70.60
22862;BME280;11598;50.652;6.172;2023-06-05T02:59:52;96818.25;;;8.99;71.28
22862;BME280;11598;50.652;6.172;2023-06-05T03:09:53;96814.97;;;9.24;70.14
22862;BME280;11598;50.652;6.172;2023-06-05T03:19:55;96805.34;;;9.66;68.30
22862;BME280;11598;50.652;6.172;2023-06-05T03:29:55;96813.38;;;9.89;67.59
22862;BME280;11598;50.652;6.172;2023-06-05T03:39:58;96799.41;;;10.04;66.72
22862;BME280;11598;50.652;6.172;2023-06-05T03:49:58;96806.66;;;10.25;65.97
22862;BME280;11598;50.652;6.172;2023-06-05T04:00:02;96813.03;;;10.46;65.50
22862;BME280;11598;50.652;6.172;2023-06-05T04:10:03;96818.00;;;10.62;65.28
22862;BME280;11598;50.652;6.172;2023-06-05T04:20:05;96806.66;;;10.76;65.52
22862;BME280;11598;50.652;6.172;2023-06-05T04:30:11;96814.50;;;11.00;65.16
22862;BME280;11598;50.652;6.172;2023-06-05T04:40:11;96807.59;;;11.25;64.93
22862;BME280;11598;50.652;6.172;2023-06-05T04:50:22;96804.91;;;11.61;64.76
22862;BME280;11598;50.652;6.172;2023-06-05T05:00:24;96803.75;;;11.90;64.09
22862;BME280;11598;50.652;6.172;2023-06-05T05:10:24;96804.78;;;12.34;64.17
22862;BME280;11598;50.652;6.172;2023-06-05T05:20:25;96805.78;;;12.89;63.19
22862;BME280;11598;50.652;6.172;2023-06-05T05:30:25;96804.47;;;13.49;61.47
22862;BME280;11598;50.652;6.172;2023-06-05T05:40:26;96804.47;;;14.45;60.35
22862;BME280;11598;50.652;6.172;2023-06-05T05:50:26;96807.19;;;15.45;59.29
22862;BME280;11598;50.652;6.172;2023-06-05T06:00:26;96804.81;;;16.30;58.29
22862;BME280;11598;50.652;6.172;2023-06-05T06:10:28;96810.78;;;16.69;55.61
22862;BME280;11598;50.652;6.172;2023-06-05T06:20:28;96829.41;;;16.85;54.46
22862;BME280;11598;50.652;6.172;2023-06-05T06:30:29;96823.63;;;17.09;53.04
22862;BME280;11598;50.652;6.172;2023-06-05T06:40:29;96829.72;;;17.10;52.57
22862;BME280;11598;50.652;6.172;2023-06-05T06:50:30;96836.81;;;17.27;53.10
22862;BME280;11598;50.652;6.172;2023-06-05T07:00:30;96845.81;;;17.70;53.01
22862;BME280;11598;50.652;6.172;2023-06-05T07:10:31;96851.72;;;18.00;52.07
22862;BME280;11598;50.652;6.172;2023-06-05T07:20:31;96849.50;;;18.31;49.37
22862;BME280;11598;50.652;6.172;2023-06-05T07:30:31;96852.06;;;18.93;46.65
22862;BME280;11598;50.652;6.172;2023-06-05T07:40:32;96853.97;;;19.60;43.93
22862;BME280;11598;50.652;6.172;2023-06-05T07:50:32;96847.00;;;20.26;44.21
22862;BME280;11598;50.652;6.172;2023-06-05T08:00:33;96855.13;;;21.13;40.55
22862;BME280;11598;50.652;6.172;2023-06-05T08:10:34;96852.84;;;21.81;40.50
22862;BME280;11598;50.652;6.172;2023-06-05T08:20:34;96836.09;;;21.88;41.68
22862;BME280;11598;50.652;6.172;2023-06-05T08:30:35;96831.69;;;22.79;42.01
22862;BME280;11598;50.652;6.172;2023-06-05T08:40:35;96837.50;;;21.45;44.00
22862;BME280;11598;50.652;6.172;2023-06-05T08:50:37;96831.31;;;20.08;45.22
22862;BME280;11598;50.652;6.172;2023-06-05T09:00:38;96845.16;;;19.35;44.95
22862;BME280;11598;50.652;6.172;2023-06-05T09:10:38;96840.97;;;19.16;45.01
22862;BME280;11598;50.652;6.172;2023-06-05T09:20:40;96843.13;;;19.12;43.86
22862;BME280;11598;50.652;6.172;2023-06-05T09:30:59;96844.41;;;19.08;42.62
22862;BME280;11598;50.652;6.172;2023-06-05T09:41:02;96833.47;;;18.95;41.77
22862;BME280;11598;50.652;6.172;2023-06-05T09:51:11;96835.69;;;19.08;40.21
22862;BME280;11598;50.652;6.172;2023-06-05T10:01:15;96841.28;;;19.13;39.47
22862;BME280;11598;50.652;6.172;2023-06-05T10:11:17;96829.47;;;19.25;40.42
22862;BME280;11598;50.652;6.172;2023-06-05T10:21:18;96829.81;;;19.22;39.89
22862;BME280;11598;50.652;6.172;2023-06-05T10:31:19;96825.63;;;19.03;40.29
22862;BME280;11598;50.652;6.172;2023-06-05T10:41:22;96817.94;;;19.18;41.10
22862;BME280;11598;50.652;6.172;2023-06-05T10:51:43;96835.94;;;19.31;38.35
22862;BME280;11598;50.652;6.172;2023-06-05T11:01:43;96820.16;;;19.39;38.17
22862;BME280;11598;50.652;6.172;2023-06-05T11:12:01;96815.72;;;19.48;39.54
22862;BME280;11598;50.652;6.172;2023-06-05T11:22:06;96812.91;;;19.49;39.70
22862;BME280;11598;50.652;6.172;2023-06-05T11:32:12;96794.16;;;19.60;40.43
22862;BME280;11598;50.652;6.172;2023-06-05T11:42:21;96797.13;;;19.57;40.26
22862;BME280;11598;50.652;6.172;2023-06-05T11:52:22;96792.75;;;19.74;40.77
22862;BME280;11598;50.652;6.172;2023-06-05T12:02:23;96793.25;;;19.94;38.63
22862;BME280;11598;50.652;6.172;2023-06-05T12:12:23;96778.56;;;20.08;38.62
22862;BME280;11598;50.652;6.172;2023-06-05T12:22:24;96773.63;;;20.05;38.24
22862;BME280;11598;50.652;6.172;2023-06-05T12:32:25;96767.69;;;20.19;38.36
22862;BME280;11598;50.652;6.172;2023-06-05T12:42:25;96760.44;;;20.30;39.76
22862;BME280;11598;50.652;6.172;2023-06-05T12:52:26;96756.28;;;20.27;41.01
22862;BME280;11598;50.652;6.172;2023-06-05T13:02:26;96742.47;;;20.25;38.75
22862;BME280;11598;50.652;6.172;2023-06-05T13:12:28;96732.22;;;20.30;39.53
22862;BME280;11598;50.652;6.172;2023-06-05T13:22:28;96727.88;;;20.54;39.70
22862;BME280;11598;50.652;6.172;2023-06-05T13:32:29;96726.88;;;20.55;40.60
22862;BME280;11598;50.652;6.172;2023-06-05T13:42:30;96719.44;;;20.66;40.44
22862;BME280;11598;50.652;6.172;2023-06-05T13:52:30;96711.22;;;20.61;39.00
22862;BME280;11598;50.652;6.172;2023-06-05T14:02:31;96703.78;;;20.65;38.85
22862;BME280;11598;50.652;6.172;2023-06-05T14:12:32;96709.97;;;20.80;39.97
22862;BME280;11598;50.652;6.172;2023-06-05T14:22:32;96700.78;;;20.68;39.77
22862;BME280;11598;50.652;6.172;2023-06-05T14:32:32;96694.72;;;20.90;39.75
22862;BME280;11598;50.652;6.172;2023-06-05T14:42:33;96695.13;;;20.79;39.09
22862;BME280;11598;50.652;6.172;2023-06-05T14:52:33;96699.25;;;20.74;40.28
22862;BME280;11598;50.652;6.172;2023-06-05T15:02:34;96703.56;;;20.75;38.86
22862;BME280;11598;50.652;6.172;2023-06-05T15:12:36;96693.22;;;20.65;39.31
22862;BME280;11598;50.652;6.172;2023-06-05T15:22:36;96680.03;;;20.57;40.01
22862;BME280;11598;50.652;6.172;2023-06-05T15:32:38;96703.78;;;20.57;38.81
22862;BME280;11598;50.652;6.172;2023-06-05T15:42:38;96691.06;;;20.52;39.67
22862;BME280;11598;50.652;6.172;2023-06-05T15:52:39;96672.13;;;20.48;39.68
22862;BME280;11598;50.652;6.172;2023-06-05T16:02:39;96685.50;;;20.47;39.39
22862;BME280;11598;50.652;6.172;2023-06-05T16:12:39;96663.94;;;20.35;39.79
22862;BME280;11598;50.652;6.172;2023-06-05T16:22:40;96668.19;;;20.36;40.04
22862;BME280;11598;50.652;6.172;2023-06-05T16:42:43;96640.91;;;20.21;40.33
22862;BME280;11598;50.652;6.172;2023-06-05T16:52:43;96647.16;;;20.20;40.92
22862;BME280;11598;50.652;6.172;2023-06-05T17:02:44;96653.78;;;20.16;39.57
22862;BME280;11598;50.652;6.172;2023-06-05T17:12:44;96650.50;;;19.97;40.24
22862;BME280;11598;50.652;6.172;2023-06-05T17:22:45;96653.81;;;19.99;40.03
22862;BME280;11598;50.652;6.172;2023-06-05T17:32:45;96650.22;;;19.92;40.27
22862;BME280;11598;50.652;6.172;2023-06-05T17:42:46;96657.63;;;19.80;41.51
22862;BME280;11598;50.652;6.172;2023-06-05T17:52:46;96654.34;;;19.70;41.42
22862;BME280;11598;50.652;6.172;2023-06-05T18:02:47;96659.41;;;19.63;42.17
22862;BME280;11598;50.652;6.172;2023-06-05T18:12:47;96659.25;;;19.49;42.39
22862;BME280;11598;50.652;6.172;2023-06-05T18:22:48;96663.19;;;19.28;43.58
22862;BME280;11598;50.652;6.172;2023-06-05T18:32:48;96665.66;;;19.05;44.46
22862;BME280;11598;50.652;6.172;2023-06-05T18:42:49;96663.28;;;18.86;44.96
22862;BME280;11598;50.652;6.172;2023-06-05T18:52:49;96666.50;;;18.63;45.26
22862;BME280;11598;50.652;6.172;2023-06-05T19:02:50;96666.25;;;18.40;45.86
22862;BME280;11598;50.652;6.172;2023-06-05T19:12:50;96683.69;;;18.15;46.74
22862;BME280;11598;50.652;6.172;2023-06-05T19:22:51;96678.44;;;17.89;47.57
22862;BME280;11598;50.652;6.172;2023-06-05T19:32:53;96689.72;;;17.63;48.48
22862;BME280;11598;50.652;6.172;2023-06-05T19:42:53;96692.47;;;17.36;49.57
22862;BME280;11598;50.652;6.172;2023-06-05T19:52:54;96707.84;;;17.13;50.68
22862;BME280;11598;50.652;6.172;2023-06-05T20:02:54;96708.13;;;16.92;51.38
22862;BME280;11598;50.652;6.172;2023-06-05T20:12:54;96724.09;;;16.70;52.34
22862;BME280;11598;50.652;6.172;2023-06-05T20:22:55;96725.69;;;16.54;53.12
22862;BME280;11598;50.652;6.172;2023-06-05T20:32:56;96728.09;;;16.37;53.97
22862;BME280;11598;50.652;6.172;2023-06-05T20:42:58;96725.38;;;16.19;54.49
22862;BME280;11598;50.652;6.172;2023-06-05T20:53:00;96730.69;;;16.00;55.23
22862;BME280;11598;50.652;6.172;2023-06-05T21:03:01;96720.91;;;15.82;55.92
22862;BME280;11598;50.652;6.172;2023-06-05T21:13:04;96727.97;;;15.72;56.38
22862;BME280;11598;50.652;6.172;2023-06-05T21:23:04;96732.34;;;15.62;56.55
22862;BME280;11598;50.652;6.172;2023-06-05T21:33:04;96738.41;;;15.53;57.07
22862;BME280;11598;50.652;6.172;2023-06-05T21:43:05;96741.97;;;15.32;57.91
22862;BME280;11598;50.652;6.172;2023-06-05T21:53:05;96744.56;;;15.03;59.07
22862;BME280;11598;50.652;6.172;2023-06-05T22:03:05;96745.56;;;14.71;59.96
22862;BME280;11598;50.652;6.172;2023-06-05T22:13:06;96739.13;;;14.75;60.22
22862;BME280;11598;50.652;6.172;2023-06-05T22:23:12;96741.63;;;14.77;60.49
22862;BME280;11598;50.652;6.172;2023-06-05T22:33:12;96742.28;;;14.79;60.85
22862;BME280;11598;50.652;6.172;2023-06-05T22:43:14;96742.41;;;14.68;61.59
22862;BME280;11598;50.652;6.172;2023-06-05T22:53:15;96739.09;;;14.35;62.87
22862;BME280;11598;50.652;6.172;2023-06-05T23:03:15;96742.59;;;14.24;63.71
22862;BME280;11598;50.652;6.172;2023-06-05T23:13:17;96743.97;;;14.19;64.36
22862;BME280;11598;50.652;6.172;2023-06-05T23:23:17;96739.50;;;13.88;65.80
22862;BME280;11598;50.652;6.172;2023-06-05T23:33:17;96741.34;;;13.77;67.04
22862;BME280;11598;50.652;6.172;2023-06-05T23:43:18;96747.97;;;13.60;68.32
22862;BME280;11598;50.652;6.172;2023-06-05T23:53:18;96742.00;;;13.37;69.55
